createdAt,value
2023-02-15T05:00:42.978Z,2.80
2023-02-15T05:01:42.363Z,3.00
2023-02-15T05:02:42.374Z,1.90
2023-02-15T05:03:42.348Z,3.00
2023-02-15T05:04:42.342Z,3.50
2023-02-15T05:05:42.315Z,2.90
2023-02-15T05:06:42.591Z,2.40
2023-02-15T05:07:42.289Z,2.60
2023-02-15T05:08:42.300Z,2.30
2023-02-15T05:09:42.262Z,2.60
2023-02-15T05:10:42.292Z,2.80
2023-02-15T05:11:42.302Z,2.70
2023-02-15T05:12:42.317Z,2.80
2023-02-15T05:13:42.216Z,2.40
2023-02-15T05:14:42.227Z,2.50
2023-02-15T05:15:44.658Z,2.70
2023-02-15T05:16:42.252Z,2.70
2023-02-15T05:17:42.217Z,2.80
2023-02-15T05:18:42.173Z,1.80
2023-02-15T05:19:42.158Z,2.10
2023-02-15T05:20:42.165Z,2.40
2023-02-15T05:21:42.125Z,2.50
2023-02-15T05:22:42.198Z,2.70
2023-02-15T05:23:42.103Z,2.30
2023-02-15T05:24:42.097Z,1.80
2023-02-15T05:25:42.085Z,2.60
2023-02-15T05:26:42.080Z,2.70
2023-02-15T05:27:42.058Z,2.00
2023-02-15T05:28:42.124Z,3.20
2023-02-15T05:29:42.043Z,2.70
2023-02-15T05:30:42.168Z,3.20
2023-02-15T05:31:42.240Z,1.80
2023-02-15T05:32:42.188Z,2.20
2023-02-15T05:33:42.024Z,2.50
2023-02-15T05:34:42.004Z,2.90
2023-02-15T05:35:41.959Z,2.70
2023-02-15T05:36:42.012Z,3.20
2023-02-15T05:37:41.948Z,2.10
2023-02-15T05:38:41.995Z,1.90
2023-02-15T05:39:49.449Z,2.00
2023-02-15T05:40:41.944Z,3.00
2023-02-15T05:41:41.895Z,2.70
2023-02-15T05:42:41.900Z,1.60
2023-02-15T05:43:41.999Z,2.50
2023-02-15T05:44:41.904Z,2.80
2023-02-15T05:45:41.894Z,2.90
2023-02-15T05:46:41.880Z,2.80
2023-02-15T05:47:41.817Z,3.20
2023-02-15T05:48:41.848Z,2.60
2023-02-15T05:49:41.879Z,3.00
2023-02-15T05:50:41.827Z,2.70
2023-02-15T05:51:41.786Z,2.60
2023-02-15T05:52:41.918Z,3.20
2023-02-15T05:53:41.751Z,2.80
2023-02-15T05:54:41.856Z,1.70
2023-02-15T05:55:42.416Z,2.70
2023-02-15T05:56:41.734Z,2.90
2023-02-15T05:57:41.722Z,2.30
2023-02-15T05:58:41.719Z,3.00
2023-02-15T05:59:41.754Z,2.20
2023-02-15T06:00:41.693Z,2.60
2023-02-15T06:01:42.035Z,2.30
2023-02-15T06:02:41.761Z,2.40
2023-02-15T06:03:41.705Z,2.20
2023-02-15T06:04:41.663Z,2.90
2023-02-15T06:05:41.631Z,2.70
2023-02-15T06:06:41.621Z,2.10
2023-02-15T06:07:41.705Z,1.90
2023-02-15T06:08:48.622Z,2.60
2023-02-15T06:09:41.550Z,2.20
2023-02-15T06:10:41.699Z,2.50
2023-02-15T06:11:41.528Z,2.50
2023-02-15T06:12:41.519Z,3.00
2023-02-15T06:13:41.552Z,2.50
2023-02-15T06:14:41.498Z,1.90
2023-02-15T06:15:41.498Z,2.40
2023-02-15T06:16:41.603Z,2.60
2023-02-15T06:17:41.484Z,2.70
2023-02-15T06:18:41.982Z,2.50
2023-02-15T06:19:41.430Z,2.50
2023-02-15T06:20:41.451Z,2.50
2023-02-15T06:21:41.407Z,2.00
2023-02-15T06:22:41.458Z,2.10
2023-02-15T06:23:41.456Z,2.30
2023-02-15T06:24:41.563Z,2.00
2023-02-15T06:25:41.361Z,2.00
2023-02-15T06:26:41.396Z,2.90
2023-02-15T06:27:41.417Z,2.20
2023-02-15T06:28:41.360Z,2.30
2023-02-15T06:29:41.911Z,2.80
2023-02-15T06:30:41.402Z,2.90
2023-02-15T06:31:41.389Z,2.90
2023-02-15T06:32:41.363Z,2.90
2023-02-15T06:33:41.282Z,1.80
2023-02-15T06:34:41.260Z,3.10
2023-02-15T06:35:41.277Z,2.50
2023-02-15T06:36:41.261Z,1.80
2023-02-15T06:37:41.222Z,2.20
2023-02-15T06:38:41.234Z,2.90
2023-02-15T06:39:41.192Z,2.10
2023-02-15T06:40:41.199Z,2.60
2023-02-15T06:41:41.241Z,2.80
2023-02-15T06:42:41.203Z,2.20
2023-02-15T06:43:41.248Z,2.90
2023-02-15T06:44:41.180Z,2.50
2023-02-15T06:45:41.141Z,3.10
2023-02-15T06:46:41.211Z,2.50
2023-02-15T06:47:41.286Z,3.50
2023-02-15T06:48:41.116Z,3.70
2023-02-15T06:49:41.064Z,3.30
2023-02-15T06:50:41.070Z,2.10
2023-02-15T06:51:41.055Z,3.20
2023-02-15T06:52:41.069Z,3.20
2023-02-15T06:53:41.098Z,2.80
2023-02-15T06:54:41.041Z,2.50
2023-02-15T06:55:41.004Z,2.70
2023-02-15T06:56:40.991Z,2.60
2023-02-15T06:57:40.968Z,2.70
2023-02-15T06:58:40.966Z,2.70
2023-02-15T06:59:41.008Z,2.80
2023-02-15T07:00:40.965Z,2.50
2023-02-15T07:01:40.968Z,2.20
2023-02-15T07:02:40.916Z,2.30
2023-02-15T07:03:40.887Z,2.80
2023-02-15T07:04:40.941Z,2.70
2023-02-15T07:05:40.974Z,3.20
2023-02-15T07:06:40.888Z,2.20
2023-02-15T07:07:40.865Z,3.00
2023-02-15T07:08:40.831Z,2.90
2023-02-15T07:09:40.811Z,2.20
2023-02-15T07:10:40.869Z,3.00
2023-02-15T07:11:40.783Z,1.90
2023-02-15T07:12:40.818Z,2.80
2023-02-15T07:13:40.749Z,2.10
2023-02-15T07:14:40.815Z,2.70
2023-02-15T07:15:40.832Z,2.00
2023-02-15T07:16:40.728Z,2.50
2023-02-15T07:17:40.696Z,2.60
2023-02-15T07:18:40.715Z,2.00
2023-02-15T07:19:40.687Z,2.40
2023-02-15T07:20:40.744Z,2.50
2023-02-15T07:21:40.664Z,2.00
2023-02-15T07:22:40.655Z,3.10
2023-02-15T07:23:40.631Z,2.30
2023-02-15T07:24:40.647Z,2.80
2023-02-15T07:25:40.670Z,2.10
2023-02-15T07:26:40.601Z,2.80
2023-02-15T07:27:40.585Z,1.90
2023-02-15T07:28:40.609Z,3.20
2023-02-15T07:29:40.559Z,3.10
2023-02-15T07:30:40.632Z,3.90
2023-02-15T07:31:40.518Z,2.90
2023-02-15T07:32:40.562Z,3.00
2023-02-15T07:33:40.517Z,3.30
2023-02-15T07:34:40.520Z,2.10
2023-02-15T07:35:41.166Z,3.30
2023-02-15T07:36:40.478Z,2.30
2023-02-15T07:37:40.446Z,3.00
2023-02-15T07:38:40.471Z,2.60
2023-02-15T07:39:40.451Z,2.80
2023-02-15T07:40:40.441Z,2.50
2023-02-15T07:41:41.035Z,2.90
2023-02-15T07:42:40.404Z,2.60
2023-02-15T07:43:40.377Z,2.80
2023-02-15T07:44:40.386Z,3.10
2023-02-15T07:45:40.335Z,3.10
2023-02-15T07:46:40.396Z,3.10
2023-02-15T07:47:40.937Z,3.80
2023-02-15T07:48:40.361Z,3.60
2023-02-15T07:49:40.313Z,3.10
2023-02-15T07:50:40.301Z,3.50
2023-02-15T07:51:40.304Z,3.50
2023-02-15T07:52:40.304Z,3.70
2023-02-15T07:53:41.051Z,3.50
2023-02-15T07:54:40.260Z,3.80
2023-02-15T07:55:40.230Z,2.60
2023-02-15T07:56:40.246Z,3.60
2023-02-15T07:57:40.179Z,3.50
2023-02-15T07:58:40.227Z,3.70
2023-02-15T07:59:41.070Z,3.70
2023-02-15T08:00:47.180Z,3.20
2023-02-15T08:01:42.832Z,3.00
2023-02-15T08:02:41.939Z,3.00
2023-02-15T08:03:40.259Z,2.20
2023-02-15T08:04:40.108Z,3.50
2023-02-15T08:05:42.450Z,2.80
2023-02-15T08:06:40.063Z,3.70
2023-02-15T08:07:40.176Z,3.60
2023-02-15T08:08:40.057Z,3.20
2023-02-15T08:09:40.049Z,3.30
2023-02-15T08:10:40.020Z,3.70
2023-02-15T08:11:40.109Z,3.40
2023-02-15T08:12:40.011Z,2.90
2023-02-15T08:13:39.997Z,3.10
2023-02-15T08:14:39.995Z,2.80
2023-02-15T08:15:39.982Z,2.90
2023-02-15T08:16:40.075Z,2.90
2023-02-15T08:17:40.411Z,3.50
2023-02-15T08:18:39.920Z,2.70
2023-02-15T08:19:39.929Z,3.30
2023-02-15T08:20:39.910Z,3.30
2023-02-15T08:21:39.968Z,2.80
2023-02-15T08:22:39.882Z,2.50
2023-02-15T08:23:41.101Z,2.80
2023-02-15T08:24:39.852Z,3.20
2023-02-15T08:25:39.852Z,3.50
2023-02-15T08:26:41.978Z,4.20
2023-02-15T08:27:39.859Z,3.10
2023-02-15T08:28:40.109Z,3.00
2023-02-15T08:29:40.658Z,3.30
2023-02-15T08:30:39.769Z,3.20
2023-02-15T08:31:39.866Z,3.40
2023-02-15T08:32:39.747Z,3.40
2023-02-15T08:33:39.751Z,3.40
2023-02-15T08:34:39.737Z,3.10
2023-02-15T08:35:40.557Z,3.10
2023-02-15T08:36:39.704Z,3.00
2023-02-15T08:37:39.734Z,3.20
2023-02-15T08:38:39.689Z,2.90
2023-02-15T08:39:39.689Z,3.90
2023-02-15T08:40:39.695Z,3.10
2023-02-15T08:41:40.085Z,3.10
2023-02-15T08:42:39.635Z,3.10
2023-02-15T08:43:39.655Z,3.30
2023-02-15T08:44:39.609Z,3.60
2023-02-15T08:45:39.636Z,3.60
2023-02-15T08:46:39.630Z,3.50
2023-02-15T08:47:40.345Z,3.60
2023-02-15T08:48:39.572Z,2.70
2023-02-15T08:49:39.546Z,3.40
2023-02-15T08:50:39.548Z,3.30
2023-02-15T08:51:39.573Z,3.70
2023-02-15T08:52:39.495Z,3.50
2023-02-15T08:53:39.804Z,3.10
2023-02-15T08:54:39.596Z,3.40
2023-02-15T08:55:39.482Z,3.20
2023-02-15T08:56:39.435Z,3.50
2023-02-15T08:57:39.456Z,3.00
2023-02-15T08:58:39.457Z,2.70
2023-02-15T08:59:39.710Z,2.90
2023-02-15T09:00:39.469Z,3.20
2023-02-15T09:01:39.460Z,3.00
2023-02-15T09:02:39.428Z,2.50
2023-02-15T09:03:39.440Z,3.50
2023-02-15T09:04:39.384Z,3.70
2023-02-15T09:05:40.166Z,3.40
2023-02-15T09:06:39.348Z,2.90
2023-02-15T09:07:39.357Z,3.20
2023-02-15T09:08:39.303Z,3.20
2023-02-15T09:09:39.307Z,4.00
2023-02-15T09:10:39.277Z,3.70
2023-02-15T09:11:39.356Z,3.20
2023-02-15T09:12:39.249Z,3.50
2023-02-15T09:13:39.276Z,3.30
2023-02-15T09:14:39.255Z,3.00
2023-02-15T09:15:39.237Z,3.90
2023-02-15T09:16:39.572Z,3.10
2023-02-15T09:17:39.207Z,3.30
2023-02-15T09:18:39.180Z,3.50
2023-02-15T09:19:39.182Z,3.90
2023-02-15T09:20:39.190Z,4.00
2023-02-15T09:21:39.273Z,3.50
2023-02-15T09:22:39.155Z,3.70
2023-02-15T09:23:39.121Z,3.50
2023-02-15T09:24:39.097Z,3.60
2023-02-15T09:25:39.097Z,3.10
2023-02-15T09:26:39.115Z,3.40
2023-02-15T09:27:39.122Z,3.30
2023-02-15T09:28:39.036Z,3.50
2023-02-15T09:29:39.072Z,3.10
2023-02-15T09:30:39.155Z,2.80
2023-02-15T09:31:39.036Z,2.80
2023-02-15T09:32:39.084Z,2.90
2023-02-15T09:33:39.006Z,3.00
2023-02-15T09:34:38.976Z,3.70
2023-02-15T09:35:38.960Z,3.20
2023-02-15T09:36:38.977Z,3.10
2023-02-15T09:37:39.044Z,3.40
2023-02-15T09:38:38.921Z,3.40
2023-02-15T09:39:38.922Z,3.60
2023-02-15T09:40:38.887Z,3.10
2023-02-15T09:41:38.893Z,3.50
2023-02-15T09:42:39.232Z,3.00
2023-02-15T09:43:45.863Z,3.40
2023-02-15T09:44:45.850Z,2.70
2023-02-15T09:45:45.896Z,4.20
2023-02-15T09:46:45.820Z,2.90
2023-02-15T09:47:38.800Z,3.20
2023-02-15T09:48:38.905Z,3.70
2023-02-15T09:49:38.817Z,4.20
2023-02-15T09:50:38.764Z,3.90
2023-02-15T09:51:38.772Z,3.50
2023-02-15T09:52:38.831Z,2.60
2023-02-15T09:53:38.765Z,3.40
2023-02-15T09:54:39.174Z,3.70
2023-02-15T09:55:38.712Z,3.40
2023-02-15T09:56:38.740Z,3.90
2023-02-15T09:57:38.694Z,3.60
2023-02-15T09:58:38.674Z,3.00
2023-02-15T09:59:38.688Z,3.90
2023-02-15T10:00:38.727Z,3.10
2023-02-15T10:01:38.840Z,2.90
2023-02-15T10:02:38.603Z,3.60
2023-02-15T10:03:38.624Z,4.00
2023-02-15T10:04:38.716Z,3.00
2023-02-15T10:05:39.028Z,3.20
2023-02-15T10:06:38.562Z,2.40
2023-02-15T10:07:38.566Z,2.90
2023-02-15T10:08:38.538Z,2.70
2023-02-15T10:09:38.541Z,2.10
2023-02-15T10:10:38.522Z,3.20
2023-02-15T10:11:39.392Z,3.30
2023-02-15T10:12:38.473Z,2.60
2023-02-15T10:13:38.481Z,2.30
2023-02-15T10:14:38.472Z,2.40
2023-02-15T10:15:38.494Z,3.40
2023-02-15T10:16:38.530Z,2.80
2023-02-15T10:17:38.707Z,2.70
2023-02-15T10:18:38.400Z,2.70
2023-02-15T10:19:38.428Z,3.60
2023-02-15T10:20:38.378Z,3.00
2023-02-15T10:21:38.371Z,3.70
2023-02-15T10:22:38.427Z,2.40
2023-02-15T10:23:38.484Z,3.00
2023-02-15T10:24:41.328Z,3.20
2023-02-15T10:25:38.399Z,3.40
2023-02-15T10:26:38.415Z,2.60
2023-02-15T10:27:38.451Z,2.70
2023-02-15T10:28:38.562Z,3.30
2023-02-15T10:29:38.278Z,2.70
2023-02-15T10:30:38.500Z,3.50
2023-02-15T10:31:38.440Z,3.00
2023-02-15T10:32:38.214Z,3.40
2023-02-15T10:33:38.244Z,3.60
2023-02-15T10:34:38.495Z,2.90
2023-02-15T10:35:38.204Z,3.00
2023-02-15T10:36:38.161Z,2.50
2023-02-15T10:37:38.186Z,3.80
2023-02-15T10:38:38.155Z,2.90
2023-02-15T10:39:38.176Z,2.70
2023-02-15T10:40:38.223Z,3.90
2023-02-15T10:41:38.129Z,2.80
2023-02-15T10:42:38.125Z,2.40
2023-02-15T10:43:38.103Z,2.80
2023-02-15T10:44:38.229Z,2.70
2023-02-15T10:45:39.435Z,2.80
2023-02-15T10:46:38.120Z,2.60
2023-02-15T10:47:38.049Z,3.20
2023-02-15T10:48:38.016Z,3.50
2023-02-15T10:49:38.023Z,3.00
2023-02-15T10:50:38.201Z,2.90
2023-02-15T10:51:38.795Z,3.10
2023-02-15T10:52:38.025Z,2.50
2023-02-15T10:53:37.987Z,3.00
2023-02-15T10:54:37.929Z,3.10
2023-02-15T10:55:37.938Z,3.10
2023-02-15T10:56:37.908Z,3.50
2023-02-15T10:57:38.033Z,3.20
2023-02-15T10:58:37.886Z,3.70
2023-02-15T10:59:37.901Z,2.70
2023-02-15T11:00:37.861Z,3.20
2023-02-15T11:01:37.953Z,3.40
2023-02-15T11:02:37.869Z,3.20
2023-02-15T11:03:37.924Z,3.20
2023-02-15T11:04:37.814Z,3.00
2023-02-15T11:05:37.840Z,2.90
2023-02-15T11:06:37.799Z,3.00
2023-02-15T11:07:37.816Z,3.30
2023-02-15T11:08:37.830Z,3.10
2023-02-15T11:09:37.774Z,3.50
2023-02-15T11:10:37.743Z,2.90
2023-02-15T11:11:37.743Z,3.60
2023-02-15T11:12:37.707Z,3.40
2023-02-15T11:13:37.812Z,2.60
2023-02-15T11:14:44.703Z,2.70
2023-02-15T11:15:37.764Z,2.80
2023-02-15T11:16:37.669Z,2.80
2023-02-15T11:17:37.655Z,2.80
2023-02-15T11:18:38.485Z,3.10
2023-02-15T11:19:37.639Z,2.50
2023-02-15T11:20:37.603Z,3.20
2023-02-15T11:21:37.628Z,3.00
2023-02-15T11:22:37.586Z,2.60
2023-02-15T11:23:37.596Z,2.80
2023-02-15T11:24:37.645Z,2.30
2023-02-15T11:25:37.547Z,2.50
2023-02-15T11:26:37.539Z,3.00
2023-02-15T11:27:37.631Z,2.20
2023-02-15T11:28:37.492Z,3.30
2023-02-15T11:29:38.093Z,2.90
2023-02-15T11:30:37.465Z,2.70
2023-02-15T11:31:37.625Z,3.50
2023-02-15T11:32:37.434Z,2.60
2023-02-15T11:33:37.452Z,3.00
2023-02-15T11:34:37.459Z,3.30
2023-02-15T11:35:37.518Z,3.20
2023-02-15T11:36:37.383Z,2.30
2023-02-15T11:37:37.404Z,2.70
2023-02-15T11:38:37.362Z,2.90
2023-02-15T11:39:38.382Z,2.50
2023-02-15T11:40:38.509Z,2.50
2023-02-15T11:41:37.339Z,3.40
2023-02-15T11:42:37.319Z,3.20
2023-02-15T11:43:37.318Z,2.70
2023-02-15T11:44:37.300Z,2.70
2023-02-15T11:45:37.288Z,2.30
2023-02-15T11:46:38.890Z,3.10
2023-02-15T11:47:37.282Z,2.80
2023-02-15T11:48:37.224Z,3.40
2023-02-15T11:49:37.252Z,2.80
2023-02-15T11:50:37.210Z,2.50
2023-02-15T11:51:37.229Z,3.50
2023-02-15T11:52:37.705Z,3.10
2023-02-15T11:53:37.196Z,2.10
2023-02-15T11:54:37.156Z,2.80
2023-02-15T11:55:37.156Z,2.40
2023-02-15T11:56:37.123Z,1.50
2023-02-15T11:57:37.136Z,3.10
2023-02-15T11:58:40.132Z,2.70
2023-02-15T11:59:37.106Z,2.90
2023-02-15T12:00:37.092Z,2.90
2023-02-15T12:01:37.102Z,3.20
2023-02-15T12:02:37.065Z,2.80
2023-02-15T12:03:37.064Z,2.40
2023-02-15T12:04:37.051Z,2.20
2023-02-15T12:05:37.032Z,2.80
2023-02-15T12:06:36.992Z,2.30
2023-02-15T12:07:37.003Z,2.60
2023-02-15T12:08:37.018Z,2.20
2023-02-15T12:09:37.070Z,2.70
2023-02-15T12:10:36.939Z,2.30
2023-02-15T12:11:36.945Z,2.40
2023-02-15T12:12:36.926Z,3.10
2023-02-15T12:13:36.914Z,3.10
2023-02-15T12:14:36.955Z,2.20
2023-02-15T12:15:36.870Z,2.50
2023-02-15T12:16:36.879Z,2.80
2023-02-15T12:17:36.866Z,2.50
2023-02-15T12:18:36.905Z,2.70
2023-02-15T12:19:36.924Z,2.70
2023-02-15T12:20:36.835Z,2.80
2023-02-15T12:21:36.807Z,2.70
2023-02-15T12:22:36.798Z,2.10
2023-02-15T12:23:36.767Z,2.00
2023-02-15T12:24:36.795Z,2.80
2023-02-15T12:25:36.872Z,2.30
2023-02-15T12:26:36.758Z,3.10
2023-02-15T12:27:36.730Z,2.70
2023-02-15T12:28:38.994Z,2.60
2023-02-15T12:29:36.713Z,2.80
2023-02-15T12:30:36.743Z,2.30
2023-02-15T12:31:36.900Z,2.40
2023-02-15T12:32:36.713Z,2.60
2023-02-15T12:33:36.641Z,2.10
2023-02-15T12:34:36.651Z,3.30
2023-02-15T12:35:37.028Z,2.80
2023-02-15T12:36:36.699Z,2.60
2023-02-15T12:37:36.640Z,2.00
2023-02-15T12:38:36.781Z,2.20
2023-02-15T12:39:36.729Z,2.60
2023-02-15T12:40:36.580Z,1.90
2023-02-15T12:41:36.644Z,2.20
2023-02-15T12:42:36.553Z,1.70
2023-02-15T12:43:36.529Z,2.40
2023-02-15T12:44:36.522Z,2.00
2023-02-15T12:45:36.502Z,2.10
2023-02-15T12:46:38.423Z,2.30
2023-02-15T12:47:36.571Z,2.20
2023-02-15T12:48:40.702Z,2.00
2023-02-15T12:49:36.453Z,2.10
2023-02-15T12:50:36.489Z,1.80
2023-02-15T12:51:36.420Z,1.60
2023-02-15T12:52:36.458Z,2.10
2023-02-15T12:53:36.643Z,2.30
2023-02-15T12:54:36.431Z,2.10
2023-02-15T12:55:36.360Z,2.10
2023-02-15T12:56:36.368Z,1.80
2023-02-15T12:57:36.341Z,1.90
2023-02-15T12:58:36.364Z,2.30
2023-02-15T12:59:36.971Z,2.30
2023-02-15T13:00:36.332Z,2.10
2023-02-15T13:01:36.288Z,2.30
2023-02-15T13:02:36.310Z,2.60
2023-02-15T13:03:36.327Z,2.60
2023-02-15T13:04:36.279Z,1.80
2023-02-15T13:05:36.286Z,2.40
2023-02-15T13:06:36.252Z,2.30
2023-02-15T13:07:36.222Z,1.70
2023-02-15T13:08:36.222Z,2.60
2023-02-15T13:09:36.203Z,2.10
2023-02-15T13:10:36.250Z,2.40
2023-02-15T13:11:36.164Z,2.00
2023-02-15T13:12:36.182Z,1.90
2023-02-15T13:13:36.622Z,2.00
2023-02-15T13:14:36.138Z,2.20
2023-02-15T13:15:36.270Z,2.00
2023-02-15T13:16:36.233Z,2.10
2023-02-15T13:17:36.109Z,2.50
2023-02-15T13:18:36.100Z,2.70
2023-02-15T13:19:36.066Z,2.10
2023-02-15T13:20:36.081Z,1.70
2023-02-15T13:21:36.086Z,2.30
2023-02-15T13:22:36.048Z,2.00
2023-02-15T13:23:36.509Z,2.50
2023-02-15T13:24:36.039Z,2.50
2023-02-15T13:25:35.982Z,2.30
2023-02-15T13:26:36.190Z,2.20
2023-02-15T13:27:35.965Z,2.30
2023-02-15T13:28:35.976Z,1.80
2023-02-15T13:29:36.346Z,2.20
2023-02-15T13:30:35.974Z,1.80
2023-02-15T13:31:35.986Z,2.00
2023-02-15T13:32:36.188Z,1.90
2023-02-15T13:33:35.887Z,2.00
2023-02-15T13:34:35.894Z,2.80
2023-02-15T13:35:35.864Z,2.00
2023-02-15T13:36:35.857Z,2.20
2023-02-15T13:37:35.825Z,2.40
2023-02-15T13:38:36.591Z,2.10
2023-02-15T13:39:36.024Z,2.00
2023-02-15T13:40:35.952Z,2.10
2023-02-15T13:41:36.882Z,2.00
2023-02-15T13:42:35.929Z,2.10
2023-02-15T13:43:36.206Z,2.50
2023-02-15T13:44:36.295Z,2.20
2023-02-15T13:45:35.914Z,1.40
2023-02-15T13:46:36.004Z,1.90
2023-02-15T13:47:35.868Z,2.20
2023-02-15T13:48:46.891Z,1.80
2023-02-15T13:49:36.927Z,2.10
2023-02-15T13:50:35.690Z,1.80
2023-02-15T13:51:36.381Z,2.00
2023-02-15T13:52:35.666Z,1.80
2023-02-15T13:53:36.440Z,2.10
2023-02-15T13:54:35.714Z,2.30
2023-02-15T13:55:35.750Z,2.40
2023-02-15T13:56:35.618Z,2.30
2023-02-15T13:57:35.612Z,2.20
2023-02-15T13:58:35.600Z,2.30
2023-02-15T13:59:35.568Z,2.10
2023-02-15T14:00:35.595Z,2.20
2023-02-15T14:01:39.466Z,1.90
2023-02-15T14:02:35.601Z,2.30
2023-02-15T14:03:35.497Z,1.80
2023-02-15T14:04:35.571Z,1.70
2023-02-15T14:05:35.566Z,2.00
2023-02-15T14:06:35.599Z,2.30
2023-02-15T14:07:35.550Z,2.00
2023-02-15T14:08:35.457Z,2.10
2023-02-15T14:09:35.414Z,2.40
2023-02-15T14:10:35.507Z,2.10
2023-02-15T14:11:35.401Z,1.90
2023-02-15T14:12:35.450Z,2.00
2023-02-15T14:13:35.455Z,2.10
2023-02-15T14:14:35.394Z,1.50
2023-02-15T14:15:35.789Z,1.80
2023-02-15T14:16:35.467Z,1.60
2023-02-15T14:17:35.320Z,2.00
2023-02-15T14:18:35.317Z,2.00
2023-02-15T14:19:35.273Z,1.80
2023-02-15T14:20:35.365Z,2.00
2023-02-15T14:21:35.248Z,1.80
2023-02-15T14:22:35.258Z,1.90
2023-02-15T14:23:35.421Z,1.80
2023-02-15T14:24:35.677Z,1.90
2023-02-15T14:25:35.999Z,2.20
2023-02-15T14:26:35.303Z,1.70
2023-02-15T14:27:35.241Z,1.70
2023-02-15T14:28:35.225Z,1.60
2023-02-15T14:29:35.239Z,2.00
2023-02-15T14:30:36.011Z,2.00
2023-02-15T14:31:35.578Z,1.70
2023-02-15T14:32:35.141Z,2.00
2023-02-15T14:33:35.953Z,2.00
2023-02-15T14:34:35.108Z,1.50
2023-02-15T14:35:35.060Z,1.60
2023-02-15T14:36:35.708Z,1.50
2023-02-15T14:37:35.026Z,2.00
2023-02-15T14:38:35.040Z,1.60
2023-02-15T14:39:35.001Z,1.80
2023-02-15T14:40:35.018Z,1.80
2023-02-15T14:41:34.969Z,2.00
2023-02-15T14:42:35.126Z,1.60
2023-02-15T14:43:34.975Z,2.10
2023-02-15T14:44:42.712Z,1.60
2023-02-15T14:45:35.096Z,1.40
2023-02-15T14:46:41.959Z,2.00
2023-02-15T14:47:34.981Z,1.70
2023-02-15T14:48:41.925Z,1.40
2023-02-15T14:49:41.913Z,1.80
2023-02-15T14:50:34.889Z,1.40
2023-02-15T14:51:41.862Z,1.50
2023-02-15T14:52:41.921Z,2.10
2023-02-15T14:53:34.823Z,1.40
2023-02-15T14:54:34.832Z,2.10
2023-02-15T14:55:34.901Z,2.20
2023-02-15T14:56:34.810Z,1.90
2023-02-15T14:57:36.346Z,1.90
2023-02-15T14:58:34.794Z,1.90
2023-02-15T14:59:34.751Z,2.00
2023-02-15T15:00:34.772Z,1.60
2023-02-15T15:01:34.777Z,1.70
2023-02-15T15:02:34.742Z,1.80
2023-02-15T15:03:35.079Z,1.90
2023-02-15T15:04:34.702Z,1.90
2023-02-15T15:05:34.744Z,1.70
2023-02-15T15:06:34.690Z,1.80
2023-02-15T15:07:34.660Z,1.60
2023-02-15T15:08:34.690Z,1.40
2023-02-15T15:09:34.713Z,1.90
2023-02-15T15:10:34.638Z,1.70
2023-02-15T15:11:43.438Z,2.20
2023-02-15T15:12:35.615Z,2.20
2023-02-15T15:13:34.614Z,1.90
2023-02-15T15:14:34.598Z,1.80
2023-02-15T15:15:34.732Z,1.40
2023-02-15T15:16:34.569Z,2.00
2023-02-15T15:17:34.664Z,1.70
2023-02-15T15:18:34.522Z,1.90
2023-02-15T15:19:50.792Z,1.40
2023-02-15T15:20:35.562Z,1.80
2023-02-15T15:21:34.466Z,1.70
2023-02-15T15:22:34.475Z,2.20
2023-02-15T15:23:34.542Z,2.20
2023-02-15T15:24:34.445Z,2.10
2023-02-15T15:25:34.445Z,1.40
2023-02-15T15:26:34.421Z,2.30
2023-02-15T15:27:34.377Z,1.40
2023-02-15T15:28:34.400Z,1.90
2023-02-15T15:29:34.359Z,1.80
2023-02-15T15:30:34.458Z,2.00
2023-02-15T15:31:34.443Z,2.20
2023-02-15T15:32:34.380Z,2.20
2023-02-15T15:33:34.321Z,1.60
2023-02-15T15:34:34.310Z,1.70
2023-02-15T15:35:34.346Z,2.10
2023-02-15T15:36:34.288Z,2.50
2023-02-15T15:37:34.253Z,2.20
2023-02-15T15:38:34.260Z,1.80
2023-02-15T15:39:34.220Z,1.50
2023-02-15T15:40:34.355Z,1.70
2023-02-15T15:41:34.191Z,1.70
2023-02-15T15:42:34.197Z,1.40
2023-02-15T15:43:34.258Z,2.00
2023-02-15T15:44:34.969Z,2.00
2023-02-15T15:45:34.887Z,2.20
2023-02-15T15:46:34.809Z,2.10
2023-02-15T15:47:34.177Z,1.90
2023-02-15T15:48:34.124Z,2.00
2023-02-15T15:49:34.275Z,2.00
2023-02-15T15:50:34.122Z,1.90
2023-02-15T15:51:34.198Z,2.00
2023-02-15T15:52:34.077Z,1.60
2023-02-15T15:53:34.053Z,1.70
2023-02-15T15:54:34.074Z,3.90
2023-02-15T15:55:34.083Z,2.10
2023-02-15T15:56:34.171Z,1.40
2023-02-15T15:57:34.037Z,2.20
2023-02-15T15:58:33.993Z,2.40
2023-02-15T15:59:33.989Z,1.90
2023-02-15T16:00:33.982Z,1.70
2023-02-15T16:01:34.071Z,1.50
2023-02-15T16:02:33.976Z,2.10
2023-02-15T16:03:34.071Z,2.00
2023-02-15T16:04:33.912Z,1.60
2023-02-15T16:05:33.960Z,1.90
2023-02-15T16:06:33.906Z,2.10
2023-02-15T16:07:33.854Z,2.30
2023-02-15T16:08:33.870Z,2.50
2023-02-15T16:09:33.989Z,2.10
2023-02-15T16:10:33.825Z,2.50
2023-02-15T16:11:34.474Z,2.50
2023-02-15T16:12:33.804Z,2.50
2023-02-15T16:13:33.782Z,2.40
2023-02-15T16:14:33.900Z,3.00
2023-02-15T16:15:33.787Z,2.80
2023-02-15T16:16:33.756Z,2.80
2023-02-15T16:17:34.862Z,2.70
2023-02-15T16:18:33.711Z,2.60
2023-02-15T16:19:33.717Z,2.80
2023-02-15T16:20:33.683Z,2.50
2023-02-15T16:21:33.693Z,2.40
2023-02-15T16:22:33.651Z,2.20
2023-02-15T16:23:34.523Z,2.40
2023-02-15T16:24:33.640Z,2.70
2023-02-15T16:25:33.653Z,2.50
2023-02-15T16:26:33.602Z,2.80
2023-02-15T16:27:33.611Z,3.00
2023-02-15T16:28:33.584Z,3.00
2023-02-15T16:29:34.791Z,3.30
2023-02-15T16:30:33.630Z,2.30
2023-02-15T16:31:33.724Z,2.80
2023-02-15T16:32:33.558Z,2.70
2023-02-15T16:33:33.538Z,2.40
2023-02-15T16:34:33.578Z,2.70
2023-02-15T16:35:34.045Z,2.60
2023-02-15T16:36:33.484Z,3.30
2023-02-15T16:37:33.489Z,2.90
2023-02-15T16:38:33.446Z,2.90
2023-02-15T16:39:33.450Z,2.50
2023-02-15T16:40:33.504Z,3.10
2023-02-15T16:41:33.463Z,3.00
2023-02-15T16:42:33.399Z,3.20
2023-02-15T16:43:33.535Z,2.90
2023-02-15T16:44:33.394Z,2.80
2023-02-15T16:45:33.464Z,3.80
2023-02-15T16:46:33.409Z,2.70
2023-02-15T16:47:33.369Z,3.60
2023-02-15T16:48:33.315Z,4.20
2023-02-15T16:49:33.354Z,3.50
2023-02-15T16:50:33.704Z,3.30
2023-02-15T16:51:33.316Z,3.50
2023-02-15T16:52:33.266Z,3.00
2023-02-15T16:53:33.275Z,3.50
2023-02-15T16:54:33.445Z,2.80
2023-02-15T16:55:33.256Z,3.10
2023-02-15T16:56:33.819Z,3.90
2023-02-15T16:57:33.258Z,3.60
2023-02-15T16:58:33.202Z,4.00
2023-02-15T16:59:33.216Z,3.20
2023-02-15T17:00:33.244Z,4.00
2023-02-15T17:01:33.212Z,3.60
2023-02-15T17:02:54.429Z,2.40
2023-02-15T17:03:34.205Z,4.00
2023-02-15T17:04:33.110Z,3.10
2023-02-15T17:05:33.135Z,2.90
2023-02-15T17:06:33.090Z,3.50
2023-02-15T17:07:33.126Z,3.30
2023-02-15T17:08:34.413Z,2.90
2023-02-15T17:09:33.074Z,4.10
2023-02-15T17:10:33.036Z,3.20
2023-02-15T17:11:33.040Z,3.60
2023-02-15T17:12:33.202Z,4.00
2023-02-15T17:13:33.024Z,3.50
2023-02-15T17:15:28.027Z,3.10
2023-02-15T17:16:28.086Z,3.30
2023-02-15T17:17:28.009Z,3.40
2023-02-15T17:18:29.737Z,3.90
2023-02-15T17:19:27.979Z,4.30
2023-02-15T17:20:28.070Z,3.90
2023-02-15T17:21:27.945Z,4.00
2023-02-15T17:22:27.975Z,4.00
2023-02-15T17:23:27.932Z,3.90
2023-02-15T17:24:27.935Z,3.90
2023-02-15T17:25:28.274Z,3.40
2023-02-15T17:26:27.905Z,3.90
2023-02-15T17:27:27.893Z,3.90
2023-02-15T17:28:27.980Z,3.30
2023-02-15T17:29:27.848Z,2.90
2023-02-15T17:30:27.965Z,3.40
2023-02-15T17:31:27.999Z,3.30
2023-02-15T17:32:27.984Z,2.60
2023-02-15T17:33:27.804Z,3.80
2023-02-15T17:34:27.822Z,3.10
2023-02-15T17:35:28.409Z,3.50
2023-02-15T17:36:27.772Z,3.30
2023-02-15T17:37:27.821Z,3.50
2023-02-15T17:38:27.743Z,3.20
2023-02-15T17:39:27.742Z,4.00
2023-02-15T17:40:27.732Z,3.70
2023-02-15T17:41:27.736Z,3.30
2023-02-15T17:42:27.726Z,3.30
2023-02-15T17:43:27.658Z,3.60
2023-02-15T17:44:27.670Z,3.80
2023-02-15T17:45:27.865Z,3.90
2023-02-15T17:46:27.646Z,3.80
2023-02-15T17:47:27.678Z,3.70
2023-02-15T17:48:27.630Z,5.20
2023-02-15T17:49:27.599Z,3.80
2023-02-15T17:50:27.589Z,3.70
2023-02-15T17:51:32.286Z,3.70
2023-02-15T17:52:27.577Z,3.30
2023-02-15T17:53:27.537Z,4.20
2023-02-15T17:54:27.543Z,2.90
2023-02-15T17:55:27.621Z,3.30
2023-02-15T17:56:27.511Z,3.60
2023-02-15T17:57:27.488Z,3.50
2023-02-15T17:58:27.508Z,5.00
2023-02-15T17:59:27.469Z,3.60
2023-02-15T18:00:27.518Z,3.00
2023-02-15T18:01:27.462Z,3.80
2023-02-15T18:02:27.456Z,3.30
2023-02-15T18:03:27.408Z,3.90
2023-02-15T18:04:27.456Z,4.20
2023-02-15T18:05:27.426Z,3.80
2023-02-15T18:06:27.397Z,3.50
2023-02-15T18:07:27.370Z,4.10
2023-02-15T18:08:27.378Z,3.60
2023-02-15T18:09:27.342Z,3.10
2023-02-15T18:10:27.436Z,2.80
2023-02-15T18:11:27.307Z,4.20
2023-02-15T18:12:27.310Z,3.30
2023-02-15T18:13:27.281Z,3.90
2023-02-15T18:14:27.280Z,3.90
2023-02-15T18:15:28.188Z,3.90
2023-02-15T18:16:27.280Z,3.30
2023-02-15T18:17:27.238Z,2.50
2023-02-15T18:18:27.264Z,3.00
2023-02-15T18:19:27.206Z,3.90